createdAt,value
2022-08-11T00:00:36.405Z,49.84
2022-08-11T00:03:43.332Z,49.69
2022-08-11T00:06:40.781Z,49.12
2022-08-11T00:09:39.173Z,49.14
2022-08-11T00:12:38.948Z,49.15
2022-08-11T00:15:08.473Z,48.92
2022-08-11T00:17:41.717Z,48.96
2022-08-11T00:24:06.089Z,48.61
2022-08-11T00:26:40.120Z,48.54
2022-08-11T00:29:37.100Z,48.66
2022-08-11T00:32:35.500Z,47.97
2022-08-11T00:35:51.906Z,47.23
2022-08-11T00:38:49.003Z,47.29
2022-08-11T00:41:43.410Z,47.80
2022-08-11T00:45:10.906Z,47.21
2022-08-11T00:52:07.006Z,47.46
2022-08-11T00:55:12.549Z,48.67
2022-08-11T01:01:38.102Z,49.61
2022-08-11T01:04:44.353Z,49.90
2022-08-11T01:08:02.184Z,49.74
2022-08-11T01:10:52.749Z,49.96
2022-08-11T01:14:06.287Z,50.42
2022-08-11T01:16:45.625Z,50.38
2022-08-11T01:20:45.044Z,50.54
2022-08-11T01:22:48.247Z,50.45
2022-08-11T01:26:07.194Z,50.75
2022-08-11T01:29:08.406Z,50.84
2022-08-11T01:32:13.393Z,51.24
2022-08-11T01:38:18.768Z,51.78
2022-08-11T01:45:39.202Z,52.49
2022-08-11T01:50:06.967Z,51.92
2022-08-11T01:56:11.026Z,52.80
2022-08-11T01:59:16.402Z,53.03
2022-08-11T02:14:09.049Z,53.28
2022-08-11T02:17:15.695Z,53.60
2022-08-11T02:24:09.368Z,53.43
2022-08-11T02:32:14.226Z,53.68
2022-08-11T02:35:09.315Z,53.41
2022-08-11T02:38:10.877Z,53.82
2022-08-11T02:40:44.983Z,54.08
2022-08-11T02:43:13.343Z,53.52
2022-08-11T02:50:10.892Z,52.30
2022-08-11T02:55:56.461Z,51.73
2022-08-11T02:57:11.483Z,51.19
2022-08-11T03:00:13.475Z,51.30
2022-08-11T03:06:20.806Z,51.03
2022-08-11T03:09:09.386Z,51.69
2022-08-11T03:12:19.498Z,51.10
2022-08-11T03:22:10.982Z,50.36
2022-08-11T03:24:57.280Z,50.75
2022-08-11T03:28:29.676Z,50.33
2022-08-11T03:32:10.952Z,50.58
2022-08-11T03:35:21.158Z,50.52
2022-08-11T03:38:16.216Z,50.67
2022-08-11T03:42:01.824Z,50.35
2022-08-11T03:45:15.166Z,50.31
2022-08-11T03:48:21.073Z,50.53
2022-08-11T03:51:20.026Z,50.14
2022-08-11T03:54:13.262Z,50.26
2022-08-11T03:57:18.397Z,50.30
2022-08-11T04:01:16.622Z,50.55
2022-08-11T04:04:11.900Z,50.38
2022-08-11T04:07:17.611Z,50.63
2022-08-11T04:10:42.242Z,50.75
2022-08-11T04:13:59.342Z,50.84
2022-08-11T04:16:43.929Z,50.61
2022-08-11T04:19:42.597Z,51.02
2022-08-11T04:22:39.703Z,51.29
2022-08-11T04:25:17.965Z,51.29
2022-08-11T04:28:50.379Z,51.61
2022-08-11T04:32:20.490Z,51.61
2022-08-11T04:35:16.931Z,51.85
2022-08-11T04:38:23.214Z,51.73
2022-08-11T04:42:02.326Z,51.70
2022-08-11T04:45:14.200Z,51.88
2022-08-11T04:49:24.188Z,52.21
2022-08-11T04:52:41.708Z,52.45
2022-08-11T04:55:40.875Z,52.06
2022-08-11T04:59:12.368Z,52.05
2022-08-11T05:02:17.329Z,51.98
2022-08-11T05:05:42.003Z,52.50
2022-08-11T05:09:12.295Z,52.18
2022-08-11T05:11:43.096Z,52.48
2022-08-11T05:26:45.381Z,52.26
2022-08-11T05:26:47.916Z,52.11
2022-08-11T05:29:25.946Z,52.55
2022-08-11T05:32:42.509Z,52.50
2022-08-11T05:35:18.444Z,52.96
2022-08-11T05:38:44.295Z,53.29
2022-08-11T05:41:36.641Z,53.88
2022-08-11T05:44:42.044Z,54.46
2022-08-11T05:47:42.787Z,54.99
2022-08-11T05:50:41.319Z,55.41
2022-08-11T05:53:46.130Z,55.72
2022-08-11T05:56:45.238Z,56.66
2022-08-11T05:59:19.515Z,57.25
2022-08-11T06:02:13.819Z,57.47
2022-08-11T06:07:48.536Z,57.33
2022-08-11T06:13:33.574Z,57.99
2022-08-11T06:17:19.653Z,58.18
2022-08-11T06:20:16.581Z,57.96
2022-08-11T06:23:13.981Z,58.00
2022-08-11T06:25:43.289Z,58.44
2022-08-11T06:28:20.583Z,58.30
2022-08-11T06:31:32.330Z,57.97
2022-08-11T06:34:32.016Z,58.11
2022-08-11T06:37:44.712Z,58.31
2022-08-11T06:40:42.807Z,58.31
2022-08-11T06:43:21.346Z,58.55
2022-08-11T06:46:28.332Z,58.34
2022-08-11T06:50:11.679Z,58.75
2022-08-11T06:56:43.698Z,58.28
2022-08-11T06:59:43.655Z,58.44
2022-08-11T07:02:26.868Z,58.47
2022-08-11T07:05:22.569Z,58.61
2022-08-11T07:08:34.623Z,58.04
2022-08-11T07:12:03.741Z,57.65
2022-08-11T07:16:10.717Z,56.62
2022-08-11T07:18:47.835Z,56.16
2022-08-11T07:22:18.274Z,55.79
2022-08-11T07:25:40.061Z,55.59
2022-08-11T07:28:44.329Z,57.01
2022-08-11T07:32:12.655Z,57.92
2022-08-11T07:35:18.498Z,58.39
2022-08-11T07:38:01.676Z,59.48
2022-08-11T07:40:47.515Z,58.71
2022-08-11T07:43:16.428Z,59.01
2022-08-11T07:46:21.814Z,59.53
2022-08-11T07:49:09.447Z,59.79
2022-08-11T07:52:14.749Z,59.37
2022-08-11T07:58:19.768Z,60.17
2022-08-11T08:01:43.284Z,60.28
2022-08-11T08:04:38.273Z,61.96
2022-08-11T08:07:42.983Z,61.94
2022-08-11T08:10:40.835Z,62.78
2022-08-11T08:13:34.231Z,62.81
2022-08-11T08:16:42.174Z,62.92
2022-08-11T08:21:48.852Z,63.39
2022-08-11T08:24:17.700Z,63.86
2022-08-11T08:27:07.427Z,64.49
2022-08-11T08:30:15.426Z,63.72
2022-08-11T08:32:46.627Z,64.38
2022-08-11T08:35:16.070Z,64.36
2022-08-11T08:37:46.981Z,64.29
2022-08-11T08:40:16.618Z,64.54
2022-08-11T08:43:13.455Z,63.91
2022-08-11T08:45:45.441Z,64.11
2022-08-11T08:48:21.502Z,63.53
2022-08-11T08:51:54.820Z,63.58
2022-08-11T08:54:43.507Z,64.91
2022-08-11T08:57:16.464Z,65.62
2022-08-11T08:59:52.449Z,65.98
2022-08-11T09:02:34.171Z,65.71
2022-08-11T09:05:22.100Z,66.18
2022-08-11T09:08:20.310Z,65.51
2022-08-11T09:11:13.946Z,67.33
2022-08-11T09:14:04.852Z,67.33
2022-08-11T09:16:45.220Z,66.86
2022-08-11T09:19:19.608Z,67.61
2022-08-11T09:22:33.024Z,67.27
2022-08-11T09:25:35.827Z,67.31
2022-08-11T09:28:05.894Z,68.50
2022-08-11T09:31:13.365Z,68.47
2022-08-11T09:33:45.653Z,68.62
2022-08-11T09:36:43.839Z,68.60
2022-08-11T09:39:43.656Z,69.12
2022-08-11T09:42:16.557Z,68.87
2022-08-11T09:45:13.290Z,69.21
2022-08-11T09:47:46.306Z,68.72
2022-08-11T09:50:17.610Z,68.78
2022-08-11T09:53:16.862Z,68.34
2022-08-11T09:55:45.176Z,67.60
2022-08-11T09:58:42.482Z,67.84
2022-08-11T10:01:08.753Z,67.83
2022-08-11T10:04:21.782Z,66.90
2022-08-11T10:07:15.386Z,67.11
2022-08-11T10:10:23.805Z,66.78
2022-08-11T10:14:10.066Z,67.23
2022-08-11T10:16:29.146Z,66.84
2022-08-11T10:19:20.290Z,67.27
2022-08-11T10:22:46.539Z,66.76
2022-08-11T10:25:34.251Z,67.44
2022-08-11T10:29:02.563Z,66.20
2022-08-11T10:32:04.416Z,67.29
2022-08-11T10:34:57.842Z,67.99
2022-08-11T10:40:47.639Z,67.17
2022-08-11T10:44:01.779Z,68.66
2022-08-11T10:47:03.439Z,67.53
2022-08-11T10:54:07.038Z,67.56
2022-08-11T10:57:04.926Z,68.26
2022-08-11T10:59:43.688Z,67.56
2022-08-11T11:06:13.277Z,67.27
2022-08-11T11:08:57.769Z,67.55
2022-08-11T11:12:42.706Z,67.56
2022-08-11T11:16:14.406Z,68.01
2022-08-11T11:18:46.247Z,68.14
2022-08-11T11:21:49.849Z,67.62
2022-08-11T11:25:17.313Z,67.59
2022-08-11T11:31:57.220Z,68.24
2022-08-11T11:34:53.774Z,67.20
2022-08-11T11:38:03.997Z,67.14
2022-08-11T11:41:12.124Z,68.52
2022-08-11T11:43:43.865Z,68.75
2022-08-11T11:46:15.415Z,68.85
2022-08-11T11:48:44.705Z,69.57
2022-08-11T11:51:16.313Z,69.85
2022-08-11T11:53:46.334Z,70.10
2022-08-11T12:01:59.882Z,69.89
2022-08-11T12:04:49.654Z,68.98
2022-08-11T12:11:46.021Z,69.08
2022-08-11T12:20:46.344Z,69.78
2022-08-11T12:23:34.842Z,70.33
2022-08-11T12:30:21.697Z,71.64
2022-08-11T12:32:53.761Z,72.03
2022-08-11T12:35:23.503Z,72.31
2022-08-11T12:42:55.549Z,72.21
2022-08-11T13:28:25.297Z,70.61
2022-08-11T13:33:29.972Z,70.13
2022-08-11T13:42:19.007Z,70.87
2022-08-11T13:44:48.578Z,71.34
2022-08-11T13:48:25.029Z,72.33
2022-08-11T13:51:34.433Z,73.43
2022-08-11T13:54:49.408Z,72.86
2022-08-11T14:04:50.462Z,73.54
2022-08-11T14:17:12.356Z,75.78
2022-08-11T14:26:07.289Z,75.73
2022-08-11T14:28:43.988Z,75.59
2022-08-11T14:31:16.263Z,75.25
2022-08-11T14:34:00.107Z,75.00
2022-08-11T14:37:18.580Z,75.55
2022-08-11T14:39:51.569Z,74.47
2022-08-11T14:42:42.518Z,74.68
2022-08-11T14:48:18.721Z,74.33
2022-08-11T14:50:48.075Z,74.47
2022-08-11T14:53:18.846Z,74.29
2022-08-11T14:56:06.874Z,74.83
2022-08-11T14:58:41.645Z,74.57
2022-08-11T15:01:31.188Z,74.72
2022-08-11T15:04:34.577Z,74.32
2022-08-11T15:06:50.466Z,74.95
2022-08-11T15:09:19.742Z,75.20
2022-08-11T15:12:06.854Z,75.32
2022-08-11T15:15:14.481Z,75.60
2022-08-11T15:17:47.226Z,75.36
2022-08-11T15:20:40.281Z,75.28
2022-08-11T15:23:41.969Z,74.76
2022-08-11T15:26:17.113Z,75.16
2022-08-11T15:29:40.815Z,75.16
2022-08-11T15:32:42.485Z,74.64
2022-08-11T15:38:35.717Z,72.48
2022-08-11T15:41:44.020Z,72.32
2022-08-11T15:50:11.245Z,70.32
2022-08-11T15:53:38.585Z,71.70
2022-08-11T15:57:05.664Z,69.93
2022-08-11T16:22:25.559Z,67.07
2022-08-11T16:27:02.079Z,65.98
2022-08-11T16:52:57.359Z,66.41
2022-08-11T16:55:52.611Z,65.92
2022-08-11T16:58:36.573Z,66.23
2022-08-11T17:01:11.663Z,66.77
2022-08-11T17:04:06.821Z,65.58
2022-08-11T17:09:52.755Z,65.27
2022-08-11T17:16:24.309Z,64.83
2022-08-11T17:20:40.019Z,65.86
2022-08-11T17:22:40.828Z,66.02
2022-08-11T17:25:22.489Z,65.31
2022-08-11T17:27:56.902Z,64.13
2022-08-11T17:30:51.065Z,64.21
2022-08-11T17:33:39.549Z,65.17
2022-08-11T17:36:12.106Z,64.20
2022-08-11T17:38:54.871Z,63.82
2022-08-11T17:41:42.543Z,62.59
2022-08-11T17:44:41.132Z,62.58
2022-08-11T17:47:42.854Z,63.32
2022-08-11T17:50:22.613Z,62.18
2022-08-11T17:59:58.708Z,61.11
2022-08-11T18:06:39.645Z,60.31
2022-08-11T18:52:58.130Z,55.17
2022-08-11T18:59:18.505Z,55.47
2022-08-11T19:02:27.968Z,55.33
2022-08-11T19:05:17.953Z,55.39
2022-08-11T19:08:10.422Z,55.04
2022-08-11T19:11:03.285Z,54.33
2022-08-11T19:13:54.449Z,53.09
2022-08-11T19:16:47.247Z,52.30
2022-08-11T19:20:02.124Z,52.27
2022-08-11T19:23:23.118Z,51.90
2022-08-11T19:26:09.442Z,52.36
2022-08-11T19:30:08.016Z,51.96
2022-08-11T19:32:25.339Z,50.93
2022-08-11T19:35:13.633Z,52.02
2022-08-11T19:38:10.217Z,51.55
2022-08-11T19:40:59.909Z,51.18
2022-08-11T19:43:51.784Z,52.16
2022-08-11T19:46:44.051Z,52.22
2022-08-11T19:49:31.504Z,52.42
2022-08-11T19:52:19.018Z,52.52
2022-08-11T19:55:06.027Z,52.47
2022-08-11T19:57:56.399Z,52.40
2022-08-11T20:00:43.703Z,52.72
2022-08-11T20:03:32.051Z,52.62
2022-08-11T20:06:26.111Z,52.73
2022-08-11T20:09:18.786Z,52.59
2022-08-11T20:12:12.709Z,52.54
2022-08-11T20:15:02.042Z,50.58
2022-08-11T20:17:57.261Z,50.58
2022-08-11T20:20:46.500Z,50.27
2022-08-11T20:23:35.565Z,50.21
2022-08-11T20:26:31.901Z,48.41
2022-08-11T20:29:19.753Z,48.60
2022-08-11T20:32:09.643Z,49.28
2022-08-11T20:34:59.020Z,49.82
2022-08-11T20:37:51.092Z,51.31
2022-08-11T20:40:43.379Z,50.36
2022-08-11T20:44:07.091Z,49.41
2022-08-11T20:46:44.452Z,48.82
2022-08-11T20:49:45.275Z,48.03
2022-08-11T20:55:53.684Z,48.80
2022-08-11T20:59:13.905Z,50.60
2022-08-11T21:01:52.113Z,50.06
2022-08-11T21:04:53.903Z,50.22
2022-08-11T21:07:50.301Z,50.75
2022-08-11T21:10:47.693Z,50.58
2022-08-11T21:13:42.137Z,50.76
2022-08-11T21:16:29.824Z,51.29
2022-08-11T21:20:06.654Z,50.91
2022-08-11T21:22:59.073Z,50.06
2022-08-11T21:25:59.312Z,49.88
2022-08-11T21:28:48.489Z,48.64
2022-08-11T21:31:37.464Z,49.19
2022-08-11T21:34:25.587Z,47.52
2022-08-11T21:37:12.869Z,48.41
2022-08-11T21:40:02.745Z,49.46
2022-08-11T21:42:53.821Z,48.93
2022-08-11T21:45:42.533Z,46.71
2022-08-11T21:48:31.507Z,46.97
2022-08-11T21:51:18.933Z,46.85
2022-08-11T21:54:06.487Z,46.78
2022-08-11T21:56:53.626Z,44.69
2022-08-11T21:59:56.773Z,45.08
2022-08-11T22:02:44.798Z,46.13
2022-08-11T22:05:43.579Z,46.83
2022-08-11T22:08:30.470Z,46.10
2022-08-11T22:11:32.282Z,46.09
2022-08-11T22:14:21.204Z,46.91
2022-08-11T22:17:08.409Z,45.44
2022-08-11T22:19:57.163Z,48.03
2022-08-11T22:22:51.213Z,48.67
2022-08-11T22:25:50.907Z,46.75
2022-08-11T22:28:39.739Z,49.11
2022-08-11T22:31:27.734Z,49.97
2022-08-11T22:34:14.821Z,49.89
2022-08-11T22:37:03.454Z,50.40
2022-08-11T22:40:01.561Z,50.27
2022-08-11T22:42:52.498Z,50.85
2022-08-11T22:45:40.304Z,51.27
2022-08-11T22:48:28.681Z,51.15
2022-08-11T22:51:17.588Z,50.96
2022-08-11T22:54:06.946Z,51.17
2022-08-11T22:56:54.189Z,51.09
2022-08-11T22:59:42.400Z,50.82
2022-08-11T23:02:30.823Z,50.75
2022-08-11T23:05:18.528Z,51.03
2022-08-11T23:08:05.373Z,51.33
2022-08-11T23:10:53.081Z,51.50
2022-08-11T23:13:40.705Z,51.67
2022-08-11T23:16:27.848Z,51.62
2022-08-11T23:19:15.051Z,51.72
2022-08-11T23:22:23.381Z,52.09
2022-08-11T23:25:25.359Z,51.91
2022-08-11T23:28:12.463Z,51.95
2022-08-11T23:31:00.637Z,52.15
2022-08-11T23:33:50.568Z,52.52
2022-08-11T23:36:47.296Z,52.53
2022-08-11T23:39:36.571Z,51.58
2022-08-11T23:42:24.222Z,52.24
2022-08-11T23:45:10.802Z,52.33
2022-08-11T23:48:00.096Z,52.31
2022-08-11T23:50:48.075Z,53.02
2022-08-11T23:53:35.259Z,52.83
2022-08-11T23:56:25.239Z,52.80
2022-08-11T23:59:16.319Z,53.17
